Time;durP1;ratioP1;P1;durP2;ratioP2;P2;SDS_P1;SDS_P2;PMS_P1;PMS_P2;Temp;Humidity;BMP_temperature;BMP_pressure;BME280_temperature;BME280_humidity;BME280_pressure;Samples;Min_cycle;Max_cycle;Signal;HPM_P1;HPM_P2
2022/06/26 00:01:06;;;;;;;2.00;1.90;;;21.40;67.40;;;;;;925476;153;27412;-69
2022/06/26 00:03:33;;;;;;;2.10;2.00;;;21.40;67.40;;;;;;925816;151;27391;-69
2022/06/26 00:05:59;;;;;;;2.27;2.10;;;21.30;67.50;;;;;;914247;153;27432;-69
2022/06/26 00:08:26;;;;;;;2.33;2.20;;;21.30;67.60;;;;;;915798;152;27436;-69
2022/06/26 00:10:52;;;;;;;3.05;2.10;;;21.30;67.40;;;;;;916918;152;27471;-69
2022/06/26 00:13:19;;;;;;;2.35;2.15;;;21.20;67.80;;;;;;917457;155;27476;-69
2022/06/26 00:15:46;;;;;;;2.10;2.00;;;21.20;67.80;;;;;;916130;155;27462;-68
2022/06/26 00:18:12;;;;;;;2.40;2.20;;;21.20;67.90;;;;;;916967;153;27332;-69
2022/06/26 00:20:39;;;;;;;2.17;2.08;;;21.10;68.10;;;;;;915938;153;27383;-71
2022/06/26 00:23:05;;;;;;;2.37;2.20;;;21.10;68.20;;;;;;914964;155;27493;-70
2022/06/26 00:25:32;;;;;;;2.25;2.15;;;21.10;68.40;;;;;;917392;155;28494;-68
2022/06/26 00:27:59;;;;;;;2.72;2.50;;;21.00;68.40;;;;;;916576;155;27377;-68
2022/06/26 00:30:25;;;;;;;2.40;2.30;;;21.00;68.70;;;;;;915402;155;27466;-68
2022/06/26 00:32:52;;;;;;;2.30;2.08;;;21.00;69.10;;;;;;915901;155;27480;-68
2022/06/26 00:35:18;;;;;;;2.35;2.17;;;21.00;69.00;;;;;;916913;155;27425;-71
2022/06/26 00:37:46;;;;;;;2.12;2.02;;;21.00;69.30;;;;;;915885;155;27430;-69
2022/06/26 00:40:12;;;;;;;1.85;1.75;;;21.00;69.20;;;;;;914173;155;27468;-69
2022/06/26 00:42:38;;;;;;;1.82;1.72;;;21.00;69.20;;;;;;915844;155;27365;-68
2022/06/26 00:45:05;;;;;;;1.82;1.72;;;20.90;69.20;;;;;;915619;153;27438;-69
2022/06/26 00:47:31;;;;;;;3.42;1.70;;;20.90;69.20;;;;;;913852;154;27958;-69
2022/06/26 00:49:58;;;;;;;1.77;1.67;;;20.90;69.40;;;;;;914373;153;27408;-69
2022/06/26 00:52:25;;;;;;;2.00;1.80;;;20.90;69.50;;;;;;915583;155;27967;-68
2022/06/26 00:54:51;;;;;;;1.95;1.77;;;20.90;70.60;;;;;;918246;155;27324;-68
2022/06/26 00:57:18;;;;;;;2.67;1.77;;;20.80;69.70;;;;;;915298;155;27372;-70
2022/06/26 00:59:44;;;;;;;1.77;1.67;;;20.80;69.60;;;;;;915572;155;27390;-68
2022/06/26 01:02:11;;;;;;;2.60;1.87;;;20.80;69.80;;;;;;915492;155;27356;-69
2022/06/26 01:04:37;;;;;;;1.72;1.62;;;20.70;70.00;;;;;;916797;153;27347;-68
2022/06/26 01:07:04;;;;;;;2.40;2.08;;;20.70;70.10;;;;;;917253;155;27363;-71
2022/06/26 01:09:31;;;;;;;2.75;2.55;;;20.60;70.20;;;;;;916463;155;27469;-70
2022/06/26 01:11:57;;;;;;;2.72;2.52;;;20.60;70.50;;;;;;914990;155;27475;-69
2022/06/26 01:14:24;;;;;;;2.45;1.82;;;20.50;70.80;;;;;;916593;155;27531;-68
2022/06/26 01:16:50;;;;;;;2.10;2.00;;;20.50;70.90;;;;;;915677;153;27675;-69
2022/06/26 01:19:17;;;;;;;2.00;1.90;;;20.50;71.20;;;;;;915071;153;28112;-69
2022/06/26 01:21:44;;;;;;;1.80;1.70;;;20.50;71.60;;;;;;916871;153;27336;-69
2022/06/26 01:24:10;;;;;;;1.77;1.67;;;20.40;71.70;;;;;;914414;155;28017;-72
2022/06/26 01:26:37;;;;;;;2.33;2.05;;;20.40;71.80;;;;;;915390;155;27411;-69
2022/06/26 01:29:03;;;;;;;2.05;1.95;;;20.40;71.90;;;;;;917357;152;28503;-68
2022/06/26 01:31:30;;;;;;;2.05;1.85;;;20.40;72.20;;;;;;916574;153;27498;-68
2022/06/26 01:33:57;;;;;;;1.85;1.67;;;20.50;72.10;;;;;;916802;152;27484;-71
2022/06/26 01:36:23;;;;;;;1.60;1.50;;;20.50;72.10;;;;;;915719;153;27404;-70
2022/06/26 01:38:50;;;;;;;2.27;1.52;;;20.50;72.10;;;;;;915062;152;27442;-69
2022/06/26 01:41:16;;;;;;;3.83;2.10;;;20.50;72.10;;;;;;917235;152;27374;-70
2022/06/26 01:43:43;;;;;;;2.17;1.95;;;20.50;72.20;;;;;;916710;155;27370;-69
2022/06/26 01:46:10;;;;;;;2.08;1.92;;;20.50;72.30;;;;;;915514;152;27484;-69
2022/06/26 01:48:37;;;;;;;1.95;1.85;;;20.50;72.40;;;;;;915908;155;27481;-68
2022/06/26 01:51:03;;;;;;;1.72;1.62;;;20.50;72.30;;;;;;916966;155;27521;-69
2022/06/26 01:53:29;;;;;;;1.67;1.57;;;20.50;72.40;;;;;;916492;155;27727;-68
2022/06/26 01:55:56;;;;;;;2.77;1.65;;;20.50;72.40;;;;;;916198;152;27374;-68
2022/06/26 01:58:22;;;;;;;1.85;1.65;;;20.40;72.50;;;;;;915525;155;27431;-68
2022/06/26 02:00:50;;;;;;;1.70;1.60;;;20.40;72.50;;;;;;915051;155;27386;-72
2022/06/26 02:03:16;;;;;;;1.90;1.80;;;20.40;72.70;;;;;;915118;154;27355;-69
2022/06/26 02:05:42;;;;;;;2.20;2.00;;;20.40;72.80;;;;;;919687;153;28038;-71
2022/06/26 02:08:09;;;;;;;1.70;1.60;;;20.30;72.90;;;;;;925966;151;27439;-70
2022/06/26 02:13:42;;;;;;;1.80;1.70;;;20.20;73.10;;;;;;925796;153;27443;-68
2022/06/26 02:16:08;;;;;;;1.72;1.62;;;20.20;73.10;;;;;;924492;153;27386;-68
2022/06/26 02:18:34;;;;;;;1.98;1.80;;;20.20;73.30;;;;;;925686;153;27404;-69
2022/06/26 02:21:01;;;;;;;1.50;1.40;;;20.10;73.50;;;;;;924818;153;27881;-69
2022/06/26 02:23:27;;;;;;;3.02;1.70;;;20.10;73.80;;;;;;925150;151;27402;-71
2022/06/26 02:25:54;;;;;;;2.65;1.60;;;20.00;73.90;;;;;;924968;153;27967;-68
2022/06/26 02:28:21;;;;;;;1.92;1.80;;;20.00;74.20;;;;;;926486;151;27491;-68
2022/06/26 02:30:48;;;;;;;3.58;1.80;;;20.00;74.50;;;;;;924758;153;27404;-68
2022/06/26 02:33:14;;;;;;;2.15;1.98;;;19.90;74.70;;;;;;926801;151;27397;-70
2022/06/26 02:35:40;;;;;;;2.50;1.82;;;19.90;74.90;;;;;;924743;153;27466;-71
2022/06/26 02:38:07;;;;;;;1.90;1.80;;;19.90;75.20;;;;;;924237;151;27435;-69
2022/06/26 02:40:33;;;;;;;1.87;1.72;;;19.80;75.40;;;;;;925009;153;27403;-70
2022/06/26 02:43:00;;;;;;;2.17;1.90;;;19.80;75.70;;;;;;926553;151;27479;-69
2022/06/26 02:45:27;;;;;;;1.70;1.60;;;19.70;75.80;;;;;;927636;153;27385;-71
2022/06/26 02:47:53;;;;;;;1.92;1.82;;;19.70;76.10;;;;;;927915;151;27495;-68
2022/06/26 02:50:20;;;;;;;1.70;1.60;;;19.70;76.40;;;;;;925744;153;27518;-68
2022/06/26 02:52:46;;;;;;;1.72;1.62;;;19.70;76.60;;;;;;926318;153;27424;-68
2022/06/26 02:55:13;;;;;;;2.25;1.62;;;19.60;76.60;;;;;;925516;153;27384;-69
2022/06/26 02:57:40;;;;;;;2.05;1.95;;;19.60;77.00;;;;;;923615;153;27398;-69
2022/06/26 03:00:06;;;;;;;2.10;1.92;;;19.60;77.20;;;;;;925729;153;27529;-72
2022/06/26 03:02:33;;;;;;;2.10;2.00;;;19.60;77.40;;;;;;924936;153;27490;-68
2022/06/26 03:04:59;;;;;;;3.02;1.80;;;19.60;77.70;;;;;;926378;153;27459;-68
2022/06/26 03:07:26;;;;;;;1.87;1.77;;;19.60;78.00;;;;;;919678;153;27446;-69
2022/06/26 03:09:53;;;;;;;2.25;2.05;;;19.60;78.20;;;;;;915693;155;27328;-68
2022/06/26 03:12:19;;;;;;;3.83;2.27;;;19.60;78.50;;;;;;916465;155;27856;-70
2022/06/26 03:14:46;;;;;;;1.57;1.50;;;19.60;78.60;;;;;;916337;155;27408;-69
2022/06/26 03:17:12;;;;;;;2.25;1.42;;;19.60;78.80;;;;;;917296;155;27532;-69
2022/06/26 03:19:39;;;;;;;3.02;1.80;;;19.60;78.90;;;;;;917462;155;27383;-70
2022/06/26 03:22:06;;;;;;;1.72;1.62;;;19.60;78.90;;;;;;915944;155;27425;-71
2022/06/26 03:24:32;;;;;;;2.00;1.80;;;19.60;79.10;;;;;;917726;155;27473;-69
2022/06/26 03:26:59;;;;;;;1.98;1.80;;;19.60;79.20;;;;;;915278;155;27555;-68
2022/06/26 03:29:25;;;;;;;2.37;2.05;;;19.60;79.40;;;;;;914536;155;27397;-69
2022/06/26 03:31:52;;;;;;;2.05;1.85;;;19.50;79.40;;;;;;916212;155;27376;-69
2022/06/26 03:34:19;;;;;;;1.70;1.57;;;19.50;79.90;;;;;;916386;155;27464;-69
2022/06/26 03:36:45;;;;;;;2.77;1.80;;;19.50;80.00;;;;;;914352;153;27503;-72
2022/06/26 03:39:12;;;;;;;1.82;1.72;;;19.50;80.40;;;;;;914592;155;27420;-70
2022/06/26 03:41:38;;;;;;;1.70;1.60;;;19.50;80.70;;;;;;917413;155;27447;-68
2022/06/26 03:44:06;;;;;;;2.10;1.75;;;19.60;81.00;;;;;;916372;155;27347;-69
2022/06/26 03:46:31;;;;;;;2.02;1.77;;;19.60;81.50;;;;;;915122;154;27393;-69
2022/06/26 03:48:58;;;;;;;1.67;1.57;;;19.60;81.90;;;;;;916018;155;27484;-69
2022/06/26 03:51:25;;;;;;;1.72;1.62;;;19.60;82.30;;;;;;915131;155;27387;-68
2022/06/26 03:53:51;;;;;;;1.77;1.67;;;19.70;82.50;;;;;;917378;155;27406;-69
2022/06/26 03:56:18;;;;;;;1.90;1.80;;;19.70;83.00;;;;;;915889;155;27434;-70
2022/06/26 03:58:44;;;;;;;2.02;1.90;;;19.80;83.00;;;;;;914520;154;27423;-69
2022/06/26 04:01:11;;;;;;;3.47;1.70;;;19.90;83.30;;;;;;916722;155;27485;-69
2022/06/26 04:03:38;;;;;;;2.15;1.95;;;19.90;83.30;;;;;;914595;155;27463;-68
2022/06/26 04:06:04;;;;;;;1.75;1.65;;;20.00;83.50;;;;;;916393;155;27362;-68
2022/06/26 04:08:31;;;;;;;2.60;2.50;;;20.10;83.50;;;;;;927398;150;27388;-69
2022/06/26 04:10:57;;;;;;;1.80;1.70;;;20.20;83.50;;;;;;929926;153;27394;-72
2022/06/26 04:13:24;;;;;;;2.55;1.50;;;20.30;83.60;;;;;;897084;158;27451;-68
2022/06/26 04:15:51;;;;;;;2.02;1.92;;;20.40;83.50;;;;;;928263;153;27384;-68
2022/06/26 04:18:17;;;;;;;1.77;1.67;;;20.50;83.30;;;;;;928654;153;27408;-69
2022/06/26 04:20:44;;;;;;;2.55;2.08;;;20.60;83.20;;;;;;914793;153;27363;-69
2022/06/26 04:23:10;;;;;;;3.25;2.08;;;20.70;83.10;;;;;;912800;153;27459;-71
2022/06/26 04:25:37;;;;;;;3.33;1.95;;;20.70;83.10;;;;;;913458;153;27427;-69
2022/06/26 04:28:03;;;;;;;4.47;2.00;;;20.80;82.90;;;;;;912688;153;27407;-68
2022/06/26 04:30:30;;;;;;;1.98;1.85;;;20.90;82.70;;;;;;912475;153;27464;-69
2022/06/26 04:32:57;;;;;;;2.42;2.00;;;21.00;82.40;;;;;;911953;153;27340;-72
2022/06/26 04:35:23;;;;;;;2.22;2.08;;;21.00;82.20;;;;;;914959;153;27583;-69
2022/06/26 04:37:50;;;;;;;1.60;1.50;;;21.10;82.00;;;;;;915220;153;27262;-68
2022/06/26 04:40:16;;;;;;;1.85;1.75;;;21.10;81.80;;;;;;915302;153;27349;-69
2022/06/26 04:42:43;;;;;;;1.98;1.75;;;21.20;81.70;;;;;;914612;153;27464;-69
2022/06/26 04:45:10;;;;;;;3.25;1.67;;;21.20;81.50;;;;;;914755;153;27392;-69
2022/06/26 04:47:36;;;;;;;1.70;1.60;;;21.30;81.40;;;;;;911913;153;27431;-72
2022/06/26 04:50:03;;;;;;;1.65;1.55;;;21.30;81.50;;;;;;915801;153;27500;-69
2022/06/26 04:52:29;;;;;;;1.85;1.40;;;21.30;81.60;;;;;;914874;153;27466;-69
2022/06/26 04:54:56;;;;;;;1.82;1.65;;;21.30;81.50;;;;;;913230;153;27337;-70
2022/06/26 04:57:23;;;;;;;1.42;1.32;;;21.40;81.50;;;;;;914211;153;27384;-69
2022/06/26 04:59:49;;;;;;;3.17;1.52;;;21.40;81.50;;;;;;914318;153;27396;-72
2022/06/26 05:02:16;;;;;;;2.45;1.50;;;21.40;81.60;;;;;;914600;153;27408;-69
2022/06/26 05:04:42;;;;;;;1.47;1.37;;;21.50;81.60;;;;;;916128;153;27707;-69
2022/06/26 05:07:09;;;;;;;1.60;1.50;;;21.60;81.40;;;;;;912813;153;27405;-71
2022/06/26 05:09:35;;;;;;;1.55;1.45;;;21.60;81.40;;;;;;910233;153;27501;-69
2022/06/26 05:12:02;;;;;;;1.82;1.40;;;21.70;81.10;;;;;;910113;153;27401;-69
2022/06/26 05:14:29;;;;;;;1.67;1.42;;;21.70;81.00;;;;;;916172;155;27378;-69
2022/06/26 05:16:55;;;;;;;2.02;1.40;;;21.70;80.80;;;;;;915866;155;27385;-70
2022/06/26 05:19:22;;;;;;;2.25;1.35;;;21.80;80.80;;;;;;917722;155;27351;-70
2022/06/26 05:21:48;;;;;;;2.33;1.72;;;21.80;80.70;;;;;;915430;155;27519;-69
2022/06/26 05:24:15;;;;;;;1.55;1.45;;;21.90;80.70;;;;;;914616;155;27414;-69
2022/06/26 05:26:42;;;;;;;1.75;1.45;;;21.90;80.70;;;;;;915153;155;27351;-69
2022/06/26 05:29:08;;;;;;;3.40;1.95;;;21.90;80.30;;;;;;916057;155;27426;-69
2022/06/26 05:31:35;;;;;;;1.90;1.55;;;22.00;80.10;;;;;;916037;155;27552;-69
2022/06/26 05:34:01;;;;;;;1.60;1.50;;;22.00;79.70;;;;;;914089;155;27410;-69
2022/06/26 05:36:28;;;;;;;2.00;1.90;;;22.10;79.50;;;;;;917376;155;27658;-69
2022/06/26 05:38:55;;;;;;;2.00;1.90;;;22.10;79.60;;;;;;917855;155;27465;-70
2022/06/26 05:41:21;;;;;;;1.77;1.60;;;22.10;79.60;;;;;;914734;155;27765;-72
2022/06/26 05:43:48;;;;;;;2.02;1.92;;;22.20;79.70;;;;;;915877;155;27910;-69
2022/06/26 05:46:14;;;;;;;2.12;2.00;;;22.20;79.60;;;;;;916844;152;27495;-68
2022/06/26 05:48:41;;;;;;;2.27;2.17;;;22.30;79.40;;;;;;915143;155;27907;-69
2022/06/26 05:51:07;;;;;;;2.47;1.98;;;22.30;79.40;;;;;;913812;155;27826;-69
2022/06/26 05:53:34;;;;;;;2.15;2.05;;;22.40;79.40;;;;;;915808;155;27351;-70
2022/06/26 05:56:01;;;;;;;2.00;1.90;;;22.50;79.80;;;;;;916416;154;27434;-72
2022/06/26 05:58:27;;;;;;;1.75;1.65;;;22.50;79.90;;;;;;915001;155;27474;-69
2022/06/26 06:00:54;;;;;;;1.90;1.80;;;22.70;79.70;;;;;;913806;155;27361;-69
2022/06/26 06:03:20;;;;;;;1.85;1.75;;;22.80;79.30;;;;;;916903;152;27410;-72
2022/06/26 06:05:47;;;;;;;3.25;2.05;;;22.90;78.80;;;;;;915067;155;27516;-70
2022/06/26 06:08:14;;;;;;;1.77;1.67;;;23.00;78.50;;;;;;916183;154;27480;-68
2022/06/26 06:10:40;;;;;;;1.77;1.67;;;23.10;77.80;;;;;;915621;155;27495;-69
2022/06/26 06:13:07;;;;;;;3.10;1.80;;;23.20;77.40;;;;;;914337;155;27383;-70
2022/06/26 06:15:33;;;;;;;1.90;1.80;;;23.30;77.00;;;;;;914921;155;27476;-70
2022/06/26 06:18:00;;;;;;;2.10;2.00;;;23.30;76.70;;;;;;917709;155;27485;-70
2022/06/26 06:20:27;;;;;;;1.82;1.72;;;23.30;76.50;;;;;;917494;155;27403;-70
2022/06/26 06:22:54;;;;;;;1.77;1.67;;;23.40;76.40;;;;;;916780;152;27458;-70
2022/06/26 06:25:20;;;;;;;1.85;1.75;;;23.50;76.40;;;;;;915727;155;27331;-70
2022/06/26 06:27:46;;;;;;;2.08;1.98;;;23.60;76.60;;;;;;916352;155;27355;-70
2022/06/26 06:30:13;;;;;;;1.90;1.80;;;23.70;76.70;;;;;;915001;155;27417;-70
2022/06/26 06:32:40;;;;;;;2.02;1.92;;;23.80;76.90;;;;;;915522;155;27379;-70
2022/06/26 06:35:06;;;;;;;1.77;1.57;;;23.90;77.30;;;;;;915074;155;27462;-71
2022/06/26 06:37:33;;;;;;;1.90;1.80;;;24.10;77.80;;;;;;916152;155;27386;-73
2022/06/26 06:39:59;;;;;;;1.92;1.82;;;24.40;78.10;;;;;;915412;155;27469;-69
2022/06/26 06:42:26;;;;;;;2.25;2.08;;;24.70;78.20;;;;;;916710;155;27352;-70
2022/06/26 06:44:52;;;;;;;1.80;1.70;;;25.10;78.70;;;;;;916418;155;27370;-71
2022/06/26 06:47:19;;;;;;;1.90;1.70;;;25.60;81.30;;;;;;913919;155;27353;-73
2022/06/26 06:49:46;;;;;;;1.60;1.50;;;26.20;82.40;;;;;;914129;155;27364;-74
2022/06/26 06:52:12;;;;;;;2.30;1.42;;;27.00;79.90;;;;;;915569;155;27556;-69
2022/06/26 06:54:39;;;;;;;1.55;1.45;;;27.70;76.50;;;;;;915872;152;27411;-70
2022/06/26 06:57:05;;;;;;;2.12;1.47;;;28.40;74.40;;;;;;916640;155;27382;-70
2022/06/26 06:59:32;;;;;;;1.37;0.95;;;29.10;72.30;;;;;;916012;155;27429;-70
2022/06/26 07:01:59;;;;;;;3.05;1.30;;;29.80;70.40;;;;;;915379;154;27532;-70
2022/06/26 07:04:25;;;;;;;1.17;0.90;;;30.50;69.90;;;;;;916436;155;27784;-72
2022/06/26 07:06:52;;;;;;;1.25;1.00;;;31.40;69.40;;;;;;916367;155;27460;-70
2022/06/26 07:09:18;;;;;;;1.20;0.82;;;32.40;68.00;;;;;;917605;153;26321;-71
2022/06/26 07:11:45;;;;;;;0.82;0.82;;;33.40;66.00;;;;;;923393;153;26277;-74
2022/06/26 07:14:12;;;;;;;1.17;0.82;;;34.50;63.20;;;;;;924912;153;26292;-71
2022/06/26 07:16:38;;;;;;;0.60;0.60;;;35.50;60.70;;;;;;913533;155;26304;-71
2022/06/26 07:19:05;;;;;;;1.00;0.90;;;36.40;59.00;;;;;;897252;158;26282;-72
2022/06/26 07:21:31;;;;;;;1.40;1.05;;;37.30;57.00;;;;;;905936;155;26273;-71
2022/06/26 07:23:58;;;;;;;1.20;0.70;;;38.20;55.60;;;;;;892686;158;26392;-71
2022/06/26 07:26:24;;;;;;;0.57;0.50;;;39.00;54.10;;;;;;912149;155;26336;-71
2022/06/26 07:28:51;;;;;;;0.85;0.75;;;39.80;52.60;;;;;;924749;153;26337;-71
2022/06/26 07:31:18;;;;;;;0.88;0.53;;;40.50;50.70;;;;;;924208;153;26217;-71
2022/06/26 07:36:29;;;;;;;0.50;0.50;;;41.80;48.30;;;;;;925437;153;27949;-71
2022/06/26 07:38:56;;;;;;;1.62;0.60;;;42.30;47.80;;;;;;924230;153;26393;-71
2022/06/26 07:41:22;;;;;;;0.80;0.80;;;42.80;46.10;;;;;;925797;153;27773;-71
2022/06/26 07:43:49;;;;;;;0.82;0.70;;;43.30;45.10;;;;;;924523;151;26395;-71
2022/06/26 07:46:16;;;;;;;1.47;0.60;;;43.70;44.00;;;;;;924990;153;26369;-72
2022/06/26 07:48:42;;;;;;;0.75;0.35;;;44.10;43.40;;;;;;924949;153;26303;-72
2022/06/26 07:51:09;;;;;;;0.60;0.50;;;44.50;42.60;;;;;;924174;153;26421;-75
2022/06/26 07:53:36;;;;;;;0.93;0.50;;;44.80;41.70;;;;;;923047;151;26337;-71
2022/06/26 07:56:02;;;;;;;0.78;0.45;;;45.10;41.00;;;;;;922775;153;26351;-71
2022/06/26 07:58:29;;;;;;;0.50;0.50;;;45.40;40.40;;;;;;925426;153;26229;-71
2022/06/26 08:00:55;;;;;;;0.30;0.30;;;45.80;39.60;;;;;;924908;151;26380;-72
2022/06/26 08:03:22;;;;;;;0.70;0.57;;;46.00;39.00;;;;;;924662;153;26260;-74
2022/06/26 08:05:48;;;;;;;0.30;0.30;;;46.30;38.30;;;;;;926726;153;26423;-71
2022/06/26 08:08:15;;;;;;;0.65;0.40;;;46.60;37.70;;;;;;925902;153;28609;-71
2022/06/26 08:10:41;;;;;;;1.35;0.30;;;46.90;36.90;;;;;;924487;153;26357;-72
2022/06/26 08:13:08;;;;;;;0.28;0.17;;;47.20;36.50;;;;;;913977;154;26458;-72
2022/06/26 08:15:35;;;;;;;0.57;0.30;;;47.40;36.00;;;;;;912450;153;26298;-72
2022/06/26 08:18:01;;;;;;;0.85;0.30;;;47.60;35.40;;;;;;897038;156;26301;-72
2022/06/26 08:20:28;;;;;;;0.80;0.40;;;47.70;34.50;;;;;;894401;158;26430;-72
2022/06/26 08:22:54;;;;;;;0.45;0.33;;;47.90;33.60;;;;;;894728;158;26268;-72
2022/06/26 08:25:21;;;;;;;0.57;0.40;;;48.00;33.30;;;;;;920482;153;26431;-72
2022/06/26 08:27:48;;;;;;;0.33;0.30;;;48.00;33.10;;;;;;919096;154;26333;-71
2022/06/26 08:30:14;;;;;;;0.98;0.37;;;48.00;32.90;;;;;;918530;153;26413;-72
2022/06/26 08:32:41;;;;;;;0.57;0.28;;;48.20;32.80;;;;;;920722;151;26301;-71
2022/06/26 08:35:07;;;;;;;0.40;0.40;;;48.40;32.40;;;;;;920881;151;26332;-74
2022/06/26 08:37:34;;;;;;;1.65;0.30;;;48.50;32.00;;;;;;920945;151;26293;-74
2022/06/26 08:40:00;;;;;;;1.47;0.30;;;48.70;31.70;;;;;;919388;154;26341;-72
2022/06/26 08:42:27;;;;;;;0.37;0.33;;;48.90;31.50;;;;;;919165;154;26371;-72
2022/06/26 08:44:54;;;;;;;0.30;0.30;;;49.00;30.70;;;;;;919979;151;27892;-75
2022/06/26 08:47:21;;;;;;;0.47;0.40;;;49.20;30.50;;;;;;920699;154;26399;-71
2022/06/26 08:49:47;;;;;;;0.65;0.20;;;49.40;30.30;;;;;;921043;154;27406;-72
2022/06/26 08:52:14;;;;;;;0.20;0.20;;;49.50;30.00;;;;;;920583;154;26328;-72
2022/06/26 08:54:40;;;;;;;1.22;0.62;;;49.60;29.60;;;;;;919456;154;26270;-72
2022/06/26 08:57:07;;;;;;;0.28;0.25;;;49.70;29.40;;;;;;919705;154;26282;-72
2022/06/26 08:59:33;;;;;;;0.20;0.20;;;49.90;29.20;;;;;;921377;154;26314;-72
2022/06/26 09:02:00;;;;;;;0.47;0.40;;;49.90;29.00;;;;;;919011;154;26330;-72
2022/06/26 09:04:26;;;;;;;0.45;0.20;;;50.00;29.30;;;;;;920514;151;26387;-74
2022/06/26 09:06:54;;;;;;;0.35;0.35;;;50.10;28.50;;;;;;920893;151;26380;-72
2022/06/26 09:09:25;;;;;;;0.33;0.20;;;50.10;28.20;;;;;;921249;154;26347;-73
2022/06/26 09:11:52;;;;;;;0.20;0.20;;;50.10;28.20;;;;;;913334;154;26324;-72
2022/06/26 09:14:19;;;;;;;0.72;0.30;;;50.20;28.10;;;;;;903845;156;26304;-72
2022/06/26 09:16:45;;;;;;;1.42;0.40;;;50.20;27.90;;;;;;906398;154;26368;-74
2022/06/26 09:19:12;;;;;;;0.45;0.20;;;50.30;27.80;;;;;;924908;153;26207;-75
2022/06/26 09:21:38;;;;;;;0.20;0.20;;;50.30;27.70;;;;;;924243;153;26229;-73
2022/06/26 09:24:05;;;;;;;0.30;0.30;;;50.30;27.50;;;;;;925760;153;26208;-72
2022/06/26 09:26:31;;;;;;;0.40;0.40;;;50.30;27.10;;;;;;925990;150;26169;-72
2022/06/26 09:28:58;;;;;;;2.15;0.53;;;50.30;26.90;;;;;;911293;153;26238;-72
2022/06/26 09:31:25;;;;;;;0.20;0.20;;;50.10;26.60;;;;;;909863;153;26680;-75
2022/06/26 09:33:51;;;;;;;1.17;0.25;;;49.80;26.80;;;;;;905893;154;26424;-71
2022/06/26 09:36:18;;;;;;;0.50;0.30;;;49.50;26.90;;;;;;926794;153;26305;-72
2022/06/26 09:38:47;;;;;;;0.80;0.47;;;49.20;27.10;;;;;;925162;153;26329;-72
2022/06/26 09:41:14;;;;;;;0.30;0.30;;;49.10;27.10;;;;;;925395;153;26205;-72
2022/06/26 09:43:43;;;;;;;0.93;0.40;;;49.00;27.30;;;;;;925463;153;26298;-73
2022/06/26 09:46:10;;;;;;;0.20;0.20;;;48.90;27.10;;;;;;903942;158;26302;-72
2022/06/26 09:48:36;;;;;;;0.35;0.35;;;48.90;27.20;;;;;;905664;154;26356;-73
2022/06/26 09:51:03;;;;;;;0.68;0.50;;;48.90;27.20;;;;;;896624;156;26305;-74
2022/06/26 09:53:30;;;;;;;0.53;0.40;;;48.90;27.10;;;;;;904088;158;28157;-73
2022/06/26 09:55:56;;;;;;;1.17;0.57;;;49.00;27.00;;;;;;905892;154;26304;-72
2022/06/26 09:58:23;;;;;;;0.47;0.30;;;49.00;26.80;;;;;;911045;153;26354;-72
2022/06/26 10:06:28;;;;;;;0.47;0.33;;;48.60;26.70;;;;;;893502;158;26323;-75
2022/06/26 10:09:00;;;;;;;0.30;0.30;;;48.40;26.50;;;;;;896859;158;26347;-72
2022/06/26 10:11:29;;;;;;;0.30;0.30;;;48.00;26.40;;;;;;908156;153;26349;-74
2022/06/26 10:13:56;;;;;;;0.17;0.17;;;47.70;26.10;;;;;;891779;156;26312;-73
2022/06/26 10:16:22;;;;;;;0.20;0.20;;;47.30;26.00;;;;;;900957;155;26398;-75
2022/06/26 10:19:07;;;;;;;0.20;0.20;;;46.90;26.00;;;;;;909639;153;26313;-72
2022/06/26 10:21:37;;;;;;;0.20;0.20;;;46.50;26.60;;;;;;910939;153;26301;-72
2022/06/26 10:24:03;;;;;;;0.25;0.10;;;45.90;26.30;;;;;;909139;153;26704;-72
2022/06/26 10:26:30;;;;;;;0.30;0.20;;;45.50;26.40;;;;;;892238;156;26429;-75
2022/06/26 10:28:56;;;;;;;0.23;0.23;;;44.90;26.50;;;;;;903191;155;26415;-74
2022/06/26 10:31:23;;;;;;;0.40;0.40;;;44.40;26.60;;;;;;901319;156;26374;-73
2022/06/26 10:33:49;;;;;;;0.70;0.30;;;44.00;26.80;;;;;;895520;155;26436;-71
2022/06/26 10:36:22;;;;;;;0.33;0.33;;;43.50;27.00;;;;;;902453;156;27372;-72
2022/06/26 10:38:49;;;;;;;0.60;0.50;;;43.10;27.30;;;;;;893973;159;26316;-73
2022/06/26 10:44:03;;;;;;;0.57;0.50;;;42.30;27.70;;;;;;896681;156;26445;-72
2022/06/26 10:46:39;;;;;;;0.85;0.50;;;41.80;27.60;;;;;;894726;156;26345;-72
2022/06/26 10:49:06;;;;;;;0.55;0.40;;;41.40;27.70;;;;;;893018;156;26320;-72
2022/06/26 10:51:32;;;;;;;0.30;0.30;;;40.90;28.00;;;;;;893496;156;26400;-73
2022/06/26 10:53:58;;;;;;;0.68;0.50;;;40.40;28.40;;;;;;894777;156;27089;-72
2022/06/26 10:56:25;;;;;;;0.47;0.47;;;40.00;28.60;;;;;;893875;156;27391;-72
2022/06/26 10:58:52;;;;;;;0.47;0.30;;;39.60;28.80;;;;;;894530;156;27398;-72
2022/06/26 11:01:19;;;;;;;0.93;0.53;;;39.30;28.90;;;;;;893514;158;27415;-72
2022/06/26 11:03:45;;;;;;;0.10;0.10;;;39.00;29.20;;;;;;892651;156;27545;-71
2022/06/26 11:06:11;;;;;;;0.42;0.42;;;38.70;29.30;;;;;;894328;156;27545;-73
2022/06/26 11:08:47;;;;;;;0.50;0.50;;;38.40;29.70;;;;;;892179;156;27435;-71
2022/06/26 11:11:17;;;;;;;0.40;0.40;;;38.20;30.00;;;;;;893280;156;27530;-72
2022/06/26 11:13:52;;;;;;;0.88;0.50;;;38.00;30.50;;;;;;897043;156;27426;-72
2022/06/26 11:16:18;;;;;;;0.33;0.33;;;37.80;30.80;;;;;;896527;156;27557;-72
2022/06/26 11:18:45;;;;;;;0.20;0.20;;;37.60;31.00;;;;;;909079;153;28421;-71
2022/06/26 11:21:11;;;;;;;0.60;0.50;;;37.50;31.30;;;;;;927627;150;27222;-71
2022/06/26 11:23:38;;;;;;;0.50;0.50;;;37.40;31.30;;;;;;912647;153;27493;-71
2022/06/26 11:26:08;;;;;;;1.85;0.57;;;37.30;31.30;;;;;;910793;153;27480;-74
2022/06/26 11:28:39;;;;;;;0.30;0.30;;;37.20;31.40;;;;;;891987;156;27441;-75
2022/06/26 11:31:04;;;;;;;0.53;0.47;;;37.10;31.40;;;;;;928435;150;27399;-71
2022/06/26 11:33:30;;;;;;;0.57;0.57;;;37.00;31.60;;;;;;928901;150;27311;-72
2022/06/26 11:35:57;;;;;;;0.53;0.53;;;37.00;31.80;;;;;;927544;153;27356;-74
2022/06/26 11:38:23;;;;;;;0.35;0.30;;;36.90;31.90;;;;;;909967;153;27510;-72
2022/06/26 11:40:50;;;;;;;0.40;0.40;;;36.80;31.60;;;;;;895279;158;27471;-73
2022/06/26 11:43:17;;;;;;;0.33;0.33;;;36.80;31.80;;;;;;911827;153;27767;-71
2022/06/26 11:45:43;;;;;;;0.40;0.40;;;36.70;31.80;;;;;;896116;158;27941;-74
2022/06/26 11:48:12;;;;;;;0.42;0.40;;;36.60;31.60;;;;;;895881;156;27504;-72
2022/06/26 11:50:36;;;;;;;0.78;0.60;;;36.60;31.70;;;;;;929521;150;27325;-75
2022/06/26 11:53:04;;;;;;;0.50;0.50;;;36.50;31.90;;;;;;909159;155;27425;-72
2022/06/26 11:55:30;;;;;;;0.37;0.37;;;36.40;31.90;;;;;;910735;153;27392;-72
2022/06/26 11:57:56;;;;;;;0.53;0.45;;;36.40;32.20;;;;;;909303;153;27483;-71
2022/06/26 12:00:23;;;;;;;0.30;0.30;;;36.40;32.40;;;;;;896614;156;27404;-72
2022/06/26 12:02:49;;;;;;;0.80;0.60;;;36.40;32.70;;;;;;911833;153;27523;-72
2022/06/26 12:05:22;;;;;;;0.60;0.60;;;36.40;33.10;;;;;;896163;156;27452;-72
2022/06/26 12:07:48;;;;;;;0.55;0.55;;;36.30;33.20;;;;;;912103;155;27972;-72
2022/06/26 12:10:24;;;;;;;1.15;0.40;;;36.40;33.20;;;;;;895839;155;27496;-71
2022/06/26 12:12:51;;;;;;;0.47;0.47;;;36.40;32.80;;;;;;908800;153;27413;-75
2022/06/26 12:15:17;;;;;;;0.40;0.40;;;36.50;32.60;;;;;;923962;153;27305;-71
2022/06/26 12:17:44;;;;;;;0.80;0.70;;;36.50;32.60;;;;;;908792;153;27451;-72
2022/06/26 12:20:13;;;;;;;0.40;0.40;;;36.40;32.60;;;;;;894144;159;27392;-71
2022/06/26 12:22:37;;;;;;;0.95;0.33;;;36.40;32.50;;;;;;892754;159;27449;-71
2022/06/26 12:25:04;;;;;;;0.45;0.45;;;36.30;32.40;;;;;;894207;159;27352;-73
2022/06/26 12:27:36;;;;;;;0.28;0.23;;;36.20;32.20;;;;;;894084;157;27548;-71
2022/06/26 12:30:03;;;;;;;0.40;0.40;;;36.00;32.50;;;;;;892777;157;27465;-71
2022/06/26 12:32:29;;;;;;;0.53;0.47;;;35.80;32.60;;;;;;891341;156;27426;-71
2022/06/26 12:34:56;;;;;;;0.57;0.50;;;35.60;32.90;;;;;;894390;159;27422;-71
2022/06/26 12:37:22;;;;;;;0.47;0.47;;;35.50;33.10;;;;;;893980;157;27488;-71
2022/06/26 12:39:50;;;;;;;0.47;0.47;;;35.30;33.30;;;;;;892942;159;27454;-75
2022/06/26 12:42:16;;;;;;;0.50;0.50;;;35.20;33.50;;;;;;894400;156;27374;-73
2022/06/26 12:44:42;;;;;;;0.20;0.20;;;35.20;33.60;;;;;;909896;156;27415;-73
2022/06/26 12:47:09;;;;;;;0.47;0.47;;;35.10;33.80;;;;;;894422;159;27353;-74
2022/06/26 12:49:35;;;;;;;0.45;0.45;;;35.00;33.80;;;;;;905545;153;27786;-73
2022/06/26 12:52:02;;;;;;;0.50;0.50;;;34.90;34.00;;;;;;895509;156;28682;-71
2022/06/26 12:54:29;;;;;;;0.50;0.47;;;34.80;34.30;;;;;;892993;156;27480;-71
2022/06/26 12:56:55;;;;;;;0.30;0.30;;;34.80;34.40;;;;;;893570;156;27419;-71
2022/06/26 12:59:22;;;;;;;0.47;0.40;;;34.90;34.60;;;;;;893836;159;27852;-71